createdAt,value
2022-09-22T00:01:20.703Z,3.75
2022-09-22T00:03:51.034Z,3.95
2022-09-22T00:06:20.578Z,4.55
2022-09-22T00:08:52.762Z,3.80
2022-09-22T00:11:22.857Z,4.32
2022-09-22T00:13:52.811Z,4.38
2022-09-22T00:16:23.268Z,3.83
2022-09-22T00:18:51.669Z,4.10
2022-09-22T00:21:22.202Z,3.80
2022-09-22T00:23:52.133Z,4.43
2022-09-22T00:26:23.064Z,3.80
2022-09-22T00:28:52.725Z,4.40
2022-09-22T00:31:22.892Z,3.70
2022-09-22T00:33:51.562Z,4.35
2022-09-22T00:36:21.552Z,4.05
2022-09-22T00:38:51.561Z,4.20
2022-09-22T00:41:21.702Z,3.90
2022-09-22T00:43:51.557Z,4.57
2022-09-22T00:46:23.684Z,3.80
2022-09-22T00:48:54.414Z,3.83
2022-09-22T00:51:26.106Z,4.20
2022-09-22T00:53:57.562Z,3.88
2022-09-22T00:56:29.460Z,3.42
2022-09-22T00:58:59.886Z,4.07
2022-09-22T01:01:28.127Z,3.38
2022-09-22T01:03:56.926Z,4.05
2022-09-22T01:06:28.299Z,4.43
2022-09-22T01:08:58.286Z,4.07
2022-09-22T01:11:27.882Z,5.03
2022-09-22T01:14:04.232Z,4.70
2022-09-22T01:16:42.355Z,5.45
2022-09-22T01:21:52.614Z,4.82
2022-09-22T01:24:46.437Z,5.00
2022-09-22T01:27:56.466Z,4.43
2022-09-22T01:33:11.796Z,5.20
2022-09-22T01:35:50.919Z,5.28
2022-09-22T01:38:27.349Z,4.30
2022-09-22T01:41:01.110Z,5.03
2022-09-22T01:43:37.084Z,4.93
2022-09-22T01:46:10.298Z,5.18
2022-09-22T01:48:43.547Z,4.60
2022-09-22T01:51:15.709Z,4.93
2022-09-22T01:53:51.950Z,4.63
2022-09-22T01:56:22.232Z,4.93
2022-09-22T01:58:54.035Z,5.18
2022-09-22T02:01:28.312Z,5.30
2022-09-22T02:04:00.914Z,5.40
2022-09-22T02:06:33.513Z,4.93
2022-09-22T02:09:04.703Z,5.47
2022-09-22T02:11:32.683Z,5.53
2022-09-22T02:14:01.494Z,4.38
2022-09-22T02:16:31.910Z,4.72
2022-09-22T02:19:12.494Z,4.50
2022-09-22T02:21:44.083Z,4.90
2022-09-22T02:24:27.788Z,5.78
2022-09-22T02:26:57.866Z,4.95
2022-09-22T02:29:28.994Z,5.35
2022-09-22T02:31:59.697Z,4.85
2022-09-22T02:34:28.556Z,4.65
2022-09-22T02:37:03.396Z,5.70
2022-09-22T02:39:39.028Z,5.57
2022-09-22T02:42:21.641Z,6.43
2022-09-22T02:44:55.571Z,4.80
2022-09-22T02:47:32.332Z,4.63
2022-09-22T02:50:01.978Z,4.95
2022-09-22T02:52:29.872Z,5.25
2022-09-22T02:54:57.840Z,4.70
2022-09-22T02:57:25.734Z,4.88
2022-09-22T02:59:53.585Z,5.13
2022-09-22T03:02:21.428Z,4.72
2022-09-22T03:04:51.520Z,5.80
2022-09-22T03:07:19.884Z,5.43
2022-09-22T03:09:47.750Z,5.18
2022-09-22T03:12:15.535Z,4.82
2022-09-22T03:14:43.997Z,4.57
2022-09-22T03:17:11.867Z,4.68
2022-09-22T03:19:39.881Z,5.50
2022-09-22T03:22:09.117Z,5.80
2022-09-22T03:24:36.948Z,5.13
2022-09-22T03:27:05.005Z,5.07
2022-09-22T03:29:32.840Z,5.30
2022-09-22T03:32:00.653Z,6.30
2022-09-22T03:34:28.988Z,5.35
2022-09-22T03:36:56.793Z,4.72
2022-09-22T03:39:26.045Z,5.28
2022-09-22T03:41:53.944Z,5.80
2022-09-22T03:44:21.751Z,5.82
2022-09-22T03:46:49.565Z,5.65
2022-09-22T03:49:17.383Z,5.50
2022-09-22T03:51:45.215Z,5.72
2022-09-22T03:54:13.536Z,6.28
2022-09-22T03:56:42.691Z,5.82
2022-09-22T03:59:11.501Z,5.32
2022-09-22T04:01:39.376Z,5.43
2022-09-22T04:04:07.568Z,5.75
2022-09-22T04:06:36.660Z,5.72
2022-09-22T04:09:05.047Z,6.07
2022-09-22T04:11:33.079Z,5.82
2022-09-22T04:14:03.892Z,5.82
2022-09-22T04:16:32.506Z,6.43
2022-09-22T04:19:00.724Z,5.80
2022-09-22T04:21:28.654Z,6.90
2022-09-22T04:23:57.091Z,6.30
2022-09-22T04:26:25.002Z,6.00
2022-09-22T04:28:52.827Z,5.68
2022-09-22T04:31:22.768Z,6.70
2022-09-22T04:33:50.742Z,6.75
2022-09-22T04:36:18.553Z,6.40
2022-09-22T04:38:46.398Z,6.88
2022-09-22T04:41:14.378Z,6.40
2022-09-22T04:43:42.591Z,6.57
2022-09-22T04:46:10.427Z,6.28
2022-09-22T04:48:39.655Z,6.10
2022-09-22T04:51:07.472Z,7.15
2022-09-22T04:53:35.723Z,6.95
2022-09-22T04:56:03.656Z,5.93
2022-09-22T04:58:31.833Z,7.40
2022-09-22T05:01:03.478Z,6.43
2022-09-22T05:03:31.429Z,6.47
2022-09-22T05:06:00.628Z,6.25
2022-09-22T05:08:28.445Z,6.68
2022-09-22T05:10:56.703Z,5.82
2022-09-22T05:13:25.424Z,6.50
2022-09-22T05:15:53.340Z,6.72
2022-09-22T05:18:21.192Z,6.63
2022-09-22T05:20:49.068Z,7.13
2022-09-22T05:23:18.253Z,5.95
2022-09-22T05:25:46.093Z,6.30
2022-09-22T05:28:13.909Z,8.80
2022-09-22T05:30:41.834Z,6.95
2022-09-22T05:33:09.682Z,5.45
2022-09-22T05:35:37.472Z,5.45
2022-09-22T05:38:05.397Z,5.78
2022-09-22T05:40:34.703Z,5.45
2022-09-22T05:43:03.085Z,5.93
2022-09-22T05:45:31.083Z,5.97
2022-09-22T05:47:59.093Z,6.22
2022-09-22T05:50:26.936Z,5.90
2022-09-22T05:53:04.847Z,5.88
2022-09-22T05:55:34.254Z,6.20
2022-09-22T05:58:02.407Z,5.10
2022-09-22T06:00:30.957Z,6.47
2022-09-22T06:02:59.169Z,8.23
2022-09-22T06:05:27.073Z,6.63
2022-09-22T06:08:02.806Z,5.88
2022-09-22T06:10:31.679Z,5.43
2022-09-22T06:13:01.314Z,6.07
2022-09-22T06:15:29.564Z,5.30
2022-09-22T06:17:57.755Z,5.28
2022-09-22T06:20:25.845Z,6.10
2022-09-22T06:22:54.979Z,5.88
2022-09-22T06:25:23.320Z,5.70
2022-09-22T06:28:01.857Z,5.13
2022-09-22T06:30:31.301Z,5.90
2022-09-22T06:32:59.358Z,5.43
2022-09-22T06:35:28.280Z,5.47
2022-09-22T06:37:59.821Z,5.05
2022-09-22T06:40:28.405Z,5.10
2022-09-22T06:42:58.126Z,5.57
2022-09-22T06:45:27.710Z,4.68
2022-09-22T06:47:58.725Z,4.88
2022-09-22T06:50:29.195Z,4.57
2022-09-22T06:52:59.703Z,5.05
2022-09-22T06:55:28.148Z,4.32
2022-09-22T06:57:58.840Z,4.18
2022-09-22T07:00:32.780Z,3.70
2022-09-22T07:03:07.179Z,3.53
2022-09-22T07:05:36.537Z,3.80
2022-09-22T07:08:05.734Z,4.78
2022-09-22T07:10:37.738Z,3.90
2022-09-22T07:13:06.307Z,3.45
2022-09-22T07:15:37.304Z,3.13
2022-09-22T07:18:05.456Z,3.55
2022-09-22T07:20:35.701Z,3.50
2022-09-22T07:23:03.571Z,4.22
2022-09-22T07:25:35.957Z,3.45
2022-09-22T07:28:05.144Z,3.45
2022-09-22T07:30:33.223Z,3.40
2022-09-22T07:33:02.442Z,4.18
2022-09-22T07:35:30.307Z,3.40
2022-09-22T07:38:03.276Z,3.28
2022-09-22T07:40:31.314Z,3.30
2022-09-22T07:42:59.414Z,3.17
2022-09-22T07:45:27.317Z,3.35
2022-09-22T07:48:12.948Z,3.40
2022-09-22T07:50:42.132Z,3.70
2022-09-22T07:53:09.988Z,3.67
2022-09-22T07:55:38.501Z,2.92
2022-09-22T07:58:06.380Z,3.05
2022-09-22T08:00:34.469Z,3.00
2022-09-22T08:03:04.060Z,2.80
2022-09-22T08:05:31.891Z,3.00
2022-09-22T08:08:03.648Z,2.33
2022-09-22T08:10:32.253Z,2.70
2022-09-22T08:13:00.212Z,2.15
2022-09-22T08:15:28.033Z,2.30
2022-09-22T08:17:58.299Z,1.95
2022-09-22T08:20:28.929Z,2.22
2022-09-22T08:23:00.770Z,2.35
2022-09-22T08:25:30.418Z,2.17
2022-09-22T08:28:00.154Z,2.28
2022-09-22T08:30:27.974Z,2.10
2022-09-22T08:32:55.873Z,2.40
2022-09-22T08:35:23.706Z,2.00
2022-09-22T08:37:51.695Z,1.95
2022-09-22T08:40:24.089Z,2.35
2022-09-22T08:42:54.457Z,2.85
2022-09-22T08:45:30.718Z,1.92
2022-09-22T08:48:22.329Z,2.08
2022-09-22T08:51:09.397Z,1.95
2022-09-22T08:53:43.860Z,1.90
2022-09-22T08:56:20.080Z,2.15
2022-09-22T08:58:55.160Z,1.70
2022-09-22T09:01:36.561Z,2.00
2022-09-22T09:04:21.695Z,1.92
2022-09-22T09:06:59.062Z,1.80
2022-09-22T09:09:47.757Z,2.72
2022-09-22T09:15:08.610Z,1.70
2022-09-22T09:17:39.716Z,1.67
2022-09-22T09:20:17.888Z,2.30
2022-09-22T09:22:51.214Z,1.83
2022-09-22T09:25:22.931Z,1.85
2022-09-22T09:27:55.434Z,2.17
2022-09-22T09:30:24.925Z,2.25
2022-09-22T09:32:56.375Z,2.00
2022-09-22T09:35:32.269Z,2.80
2022-09-22T09:38:02.094Z,1.90
2022-09-22T09:40:30.261Z,1.80
2022-09-22T09:43:03.247Z,2.10
2022-09-22T09:45:37.846Z,2.20
2022-09-22T09:48:19.874Z,2.10
2022-09-22T09:50:47.796Z,1.60
2022-09-22T09:53:30.216Z,1.83
2022-09-22T09:55:58.721Z,2.03
2022-09-22T09:58:44.434Z,2.80
2022-09-22T10:01:15.774Z,1.75
2022-09-22T10:03:48.191Z,1.38
2022-09-22T10:06:25.174Z,1.70
2022-09-22T10:08:53.427Z,2.47
2022-09-22T10:11:31.155Z,1.80
2022-09-22T10:13:59.618Z,1.67
2022-09-22T10:16:30.567Z,2.00
2022-09-22T10:19:22.722Z,2.20
2022-09-22T10:21:50.770Z,1.80
2022-09-22T10:24:31.567Z,2.00
2022-09-22T10:27:02.532Z,2.10
2022-09-22T10:29:33.272Z,1.90
2022-09-22T10:32:05.152Z,1.92
2022-09-22T10:34:35.694Z,2.10
2022-09-22T10:37:10.539Z,1.98
2022-09-22T10:39:44.010Z,2.70
2022-09-22T10:42:28.033Z,2.47
2022-09-22T10:45:00.218Z,1.58
2022-09-22T10:47:39.680Z,2.38
2022-09-22T10:50:50.386Z,1.73
2022-09-22T10:53:35.893Z,1.77
2022-09-22T10:56:13.961Z,2.22
2022-09-22T10:59:00.241Z,1.98
2022-09-22T11:01:41.918Z,1.58
2022-09-22T11:04:39.658Z,2.10
2022-09-22T11:08:00.837Z,1.70
2022-09-22T11:10:54.611Z,2.40
2022-09-22T11:13:34.303Z,1.70
2022-09-22T11:16:23.771Z,1.60
2022-09-22T11:19:06.205Z,1.80
2022-09-22T11:21:46.095Z,1.73
2022-09-22T11:24:37.681Z,1.98
2022-09-22T11:27:08.159Z,2.00
2022-09-22T11:29:52.325Z,1.58
2022-09-22T11:32:34.122Z,1.60
2022-09-22T11:35:30.663Z,1.95
2022-09-22T11:38:14.763Z,1.90
2022-09-22T11:41:16.154Z,1.30
2022-09-22T11:44:14.540Z,1.35
2022-09-22T11:46:57.815Z,1.05
2022-09-22T11:49:38.027Z,1.40
2022-09-22T11:52:21.005Z,1.30
2022-09-22T11:55:05.886Z,1.08
2022-09-22T11:57:38.645Z,1.05
2022-09-22T12:00:12.960Z,0.90
2022-09-22T12:02:46.521Z,1.00
2022-09-22T12:05:19.322Z,1.40
2022-09-22T12:07:53.091Z,1.10
2022-09-22T12:10:29.582Z,1.33
2022-09-22T12:12:57.871Z,1.00
2022-09-22T12:15:30.331Z,0.82
2022-09-22T12:18:10.775Z,1.08
2022-09-22T12:20:50.339Z,1.17
2022-09-22T12:23:24.914Z,1.13
2022-09-22T12:25:57.442Z,1.00
2022-09-22T12:28:28.047Z,0.90
2022-09-22T12:31:04.989Z,0.60
2022-09-22T12:33:35.067Z,0.52
2022-09-22T12:36:04.742Z,0.75
2022-09-22T12:38:32.975Z,0.68
2022-09-22T12:41:04.321Z,1.02
2022-09-22T12:43:33.644Z,0.75
2022-09-22T12:46:06.836Z,0.60
2022-09-22T12:48:37.147Z,0.60
2022-09-22T12:51:33.294Z,0.82
2022-09-22T12:54:36.566Z,0.60
2022-09-22T12:57:23.784Z,0.70
2022-09-22T13:00:13.478Z,0.60
2022-09-22T13:02:45.943Z,0.68
2022-09-22T13:05:37.277Z,0.80
2022-09-22T13:08:05.328Z,0.70
2022-09-22T13:10:55.862Z,0.70
2022-09-22T13:13:46.754Z,1.05
2022-09-22T13:16:37.089Z,0.80
2022-09-22T13:19:10.790Z,1.00
2022-09-22T13:21:40.009Z,1.10
2022-09-22T13:24:26.593Z,1.10
2022-09-22T13:27:05.581Z,0.80
2022-09-22T13:29:36.405Z,0.95
2022-09-22T13:32:18.479Z,0.60
2022-09-22T13:34:46.730Z,1.17
2022-09-22T13:37:18.561Z,0.80
2022-09-22T13:39:50.454Z,0.90
2022-09-22T13:42:22.240Z,0.88
2022-09-22T13:45:01.269Z,1.02
2022-09-22T13:47:29.752Z,1.02
2022-09-22T13:50:03.916Z,0.80
2022-09-22T13:52:33.620Z,1.13
2022-09-22T13:55:08.750Z,1.20
2022-09-22T13:57:38.619Z,1.10
2022-09-22T14:00:10.292Z,1.10
2022-09-22T14:02:45.545Z,1.15
2022-09-22T14:05:20.133Z,1.35
2022-09-22T14:08:10.492Z,0.90
2022-09-22T14:10:38.110Z,1.30
2022-09-22T14:13:05.935Z,0.90
2022-09-22T14:15:43.186Z,1.30
2022-09-22T14:18:18.341Z,1.13
2022-09-22T14:20:46.957Z,1.52
2022-09-22T14:23:18.763Z,1.13
2022-09-22T14:25:46.982Z,1.20
2022-09-22T14:28:21.866Z,1.00
2022-09-22T14:30:51.357Z,1.10
2022-09-22T14:33:22.351Z,1.15
2022-09-22T14:35:52.842Z,1.10
2022-09-22T14:38:23.835Z,1.30
2022-09-22T14:40:53.981Z,1.40
2022-09-22T14:43:25.091Z,0.95
2022-09-22T14:46:06.210Z,1.13
2022-09-22T14:48:37.415Z,1.20
2022-09-22T14:51:08.234Z,1.20
2022-09-22T14:53:43.340Z,1.10
2022-09-22T14:56:15.958Z,1.00
2022-09-22T14:58:49.515Z,1.00
2022-09-22T15:01:40.474Z,1.98
2022-09-22T15:04:16.355Z,1.38
2022-09-22T15:06:46.417Z,1.05
2022-09-22T15:09:27.428Z,1.00
2022-09-22T15:11:57.358Z,1.08
2022-09-22T15:14:32.115Z,1.10
2022-09-22T15:17:22.038Z,1.10
2022-09-22T15:19:51.428Z,1.00
2022-09-22T15:22:19.289Z,0.93
2022-09-22T15:24:48.292Z,0.95
2022-09-22T15:27:17.693Z,1.40
2022-09-22T15:29:45.575Z,1.35
2022-09-22T15:32:15.487Z,1.30
2022-09-22T15:34:45.131Z,1.20
2022-09-22T15:37:15.278Z,2.53
2022-09-22T15:39:43.632Z,0.95
2022-09-22T15:42:12.139Z,1.00
2022-09-22T15:44:40.456Z,1.25
2022-09-22T15:47:16.484Z,1.33
2022-09-22T15:49:45.055Z,1.23
2022-09-22T15:52:13.093Z,1.10
2022-09-22T15:54:40.982Z,1.40
2022-09-22T15:57:10.519Z,1.13
2022-09-22T15:59:38.459Z,2.60
2022-09-22T16:02:11.628Z,1.20
2022-09-22T16:04:40.843Z,1.15
2022-09-22T16:07:12.344Z,1.10
2022-09-22T16:09:40.290Z,1.00
2022-09-22T16:12:10.872Z,1.25
2022-09-22T16:14:39.887Z,0.77
2022-09-22T16:17:08.178Z,1.05
2022-09-22T16:19:36.083Z,1.00
2022-09-22T16:22:05.806Z,0.95
2022-09-22T16:24:33.665Z,1.02
2022-09-22T16:27:02.037Z,1.20
2022-09-22T16:29:29.872Z,1.10
2022-09-22T16:31:57.835Z,1.27
2022-09-22T16:34:25.795Z,1.15
2022-09-22T16:36:53.617Z,1.58
2022-09-22T16:39:23.678Z,1.30
2022-09-22T16:41:51.529Z,1.15
2022-09-22T16:44:19.439Z,1.48
2022-09-22T16:46:47.310Z,0.98
2022-09-22T16:49:17.227Z,1.00
2022-09-22T16:51:48.713Z,1.33
2022-09-22T16:54:17.638Z,1.40
2022-09-22T16:56:48.778Z,1.77
2022-09-22T16:59:18.162Z,1.27
2022-09-22T17:01:46.635Z,1.20
2022-09-22T17:04:16.819Z,1.48
2022-09-22T17:06:44.665Z,1.38
2022-09-22T17:09:14.010Z,1.30
2022-09-22T17:11:43.985Z,1.40
2022-09-22T17:14:15.474Z,1.48
2022-09-22T17:16:44.606Z,1.52
2022-09-22T17:19:15.478Z,1.45
2022-09-22T17:21:43.961Z,1.83
2022-09-22T17:24:11.771Z,1.70
2022-09-22T17:26:41.621Z,1.83
2022-09-22T17:29:10.821Z,1.40
2022-09-22T17:31:41.564Z,1.70
2022-09-22T17:34:10.479Z,1.52
2022-09-22T17:36:38.409Z,1.48
2022-09-22T17:39:07.162Z,1.60
2022-09-22T17:41:35.412Z,1.55
2022-09-22T17:44:04.395Z,1.40
2022-09-22T17:46:34.144Z,1.95
2022-09-22T17:49:20.860Z,1.58
2022-09-22T17:52:07.163Z,1.40
2022-09-22T17:55:05.558Z,1.60
2022-09-22T17:57:35.210Z,1.38
2022-09-22T18:00:03.848Z,1.40
2022-09-22T18:02:36.538Z,1.77
2022-09-22T18:05:06.406Z,1.60
2022-09-22T18:07:36.643Z,1.77
2022-09-22T18:10:05.225Z,2.05
2022-09-22T18:12:34.151Z,2.00
2022-09-22T18:15:02.303Z,1.77
2022-09-22T18:17:31.324Z,1.70
2022-09-22T18:20:00.291Z,1.55
2022-09-22T18:22:29.770Z,1.38
2022-09-22T18:24:57.602Z,2.00
2022-09-22T18:27:27.063Z,1.95
2022-09-22T18:29:58.473Z,2.28
2022-09-22T18:32:27.361Z,2.03
2022-09-22T18:34:55.377Z,2.67
2022-09-22T18:37:25.042Z,2.22
2022-09-22T18:39:54.382Z,2.15
2022-09-22T18:42:25.063Z,2.83
2022-09-22T18:44:53.200Z,2.65
2022-09-22T18:47:23.107Z,3.10
2022-09-22T18:49:51.273Z,2.42
2022-09-22T18:52:23.860Z,2.47
2022-09-22T18:54:53.211Z,2.60
2022-09-22T18:57:23.007Z,2.90
2022-09-22T18:59:51.226Z,3.30
2022-09-22T19:02:22.168Z,3.00
2022-09-22T19:04:51.462Z,3.15
2022-09-22T19:07:41.579Z,3.80
2022-09-22T19:10:11.842Z,3.65
2022-09-22T19:12:41.446Z,4.22
2022-09-22T19:15:18.067Z,4.18
2022-09-22T19:17:48.422Z,4.22
2022-09-22T19:20:18.284Z,4.03
2022-09-22T19:22:46.779Z,3.45
2022-09-22T19:25:16.039Z,4.00
2022-09-22T19:27:45.218Z,4.07
2022-09-22T19:30:14.019Z,3.53
2022-09-22T19:32:41.968Z,3.58
2022-09-22T19:35:10.339Z,4.00
2022-09-22T19:37:38.270Z,3.85
2022-09-22T19:40:08.501Z,3.70
2022-09-22T19:42:40.007Z,3.78
2022-09-22T19:45:10.607Z,4.18
2022-09-22T19:47:39.521Z,3.58
2022-09-22T19:50:08.870Z,3.72
2022-09-22T19:52:37.698Z,3.60
2022-09-22T19:55:06.455Z,3.53
2022-09-22T19:57:41.066Z,3.63
2022-09-22T20:00:11.764Z,3.58
2022-09-22T20:02:39.990Z,3.47
2022-09-22T20:05:19.277Z,4.90
2022-09-22T20:07:47.261Z,3.53
2022-09-22T20:10:17.276Z,3.65
2022-09-22T20:12:45.096Z,3.00
2022-09-22T20:15:15.756Z,3.17
2022-09-22T20:17:46.041Z,3.80
2022-09-22T20:20:15.321Z,3.47
2022-09-22T20:22:43.432Z,2.88
2022-09-22T20:25:21.787Z,2.97
2022-09-22T20:27:49.712Z,3.20
2022-09-22T20:30:19.472Z,3.50
2022-09-22T20:32:47.437Z,3.17
2022-09-22T20:35:17.982Z,3.10
2022-09-22T20:37:46.532Z,3.33
2022-09-22T20:40:18.696Z,3.28
2022-09-22T20:42:47.056Z,3.88
2022-09-22T20:45:15.338Z,4.15
2022-09-22T20:47:44.483Z,3.45
2022-09-22T20:50:13.341Z,3.10
2022-09-22T20:52:41.518Z,3.63
2022-09-22T20:55:10.204Z,3.72
2022-09-22T20:57:40.111Z,3.50
2022-09-22T21:00:09.809Z,3.13
2022-09-22T21:02:38.427Z,3.42
2022-09-22T21:05:08.366Z,4.80
2022-09-22T21:07:36.207Z,3.42
2022-09-22T21:10:22.044Z,4.32
2022-09-22T21:12:50.671Z,3.50
2022-09-22T21:15:19.874Z,3.30
2022-09-22T21:17:48.088Z,3.28
2022-09-22T21:20:17.417Z,3.25
2022-09-22T21:22:45.308Z,4.00
2022-09-22T21:25:13.218Z,7.53
2022-09-22T21:27:41.034Z,7.97
2022-09-22T21:30:09.655Z,9.05
2022-09-22T21:32:37.508Z,6.75
2022-09-22T21:35:06.340Z,4.13
2022-09-22T21:37:36.045Z,4.13
2022-09-22T21:40:04.085Z,3.67
2022-09-22T21:42:32.266Z,3.70
2022-09-22T21:45:00.118Z,3.63
2022-09-22T21:47:27.934Z,3.65
2022-09-22T21:49:55.798Z,4.10
2022-09-22T21:52:23.620Z,3.28
2022-09-22T21:54:52.835Z,4.03
2022-09-22T21:57:20.631Z,3.75
2022-09-22T21:59:48.477Z,3.38
2022-09-22T22:02:16.326Z,4.05
2022-09-22T22:04:46.478Z,3.70
2022-09-22T22:07:15.503Z,4.35
2022-09-22T22:09:43.383Z,3.55
2022-09-22T22:12:13.303Z,3.47
2022-09-22T22:14:41.152Z,4.25
2022-09-22T22:17:09.008Z,3.72
2022-09-22T22:19:36.899Z,4.10
2022-09-22T22:22:05.259Z,5.18
2022-09-22T22:24:38.970Z,3.97
2022-09-22T22:27:09.896Z,3.35
2022-09-22T22:29:39.591Z,3.78
2022-09-22T22:32:10.444Z,3.90
2022-09-22T22:34:38.743Z,3.45
2022-09-22T22:37:09.623Z,3.55
2022-09-22T22:39:37.755Z,4.13
2022-09-22T22:42:06.428Z,3.60
2022-09-22T22:44:35.212Z,3.60
2022-09-22T22:47:05.219Z,4.10
2022-09-22T22:49:33.586Z,3.72
2022-09-22T22:52:01.548Z,3.63
2022-09-22T22:54:29.428Z,4.00
2022-09-22T22:56:57.270Z,3.60
2022-09-22T22:59:25.163Z,3.90
2022-09-22T23:01:53.647Z,3.95
2022-09-22T23:04:23.046Z,3.70
2022-09-22T23:06:51.697Z,3.67
2022-09-22T23:09:19.578Z,3.65
2022-09-22T23:11:47.580Z,4.28
2022-09-22T23:14:16.000Z,4.10
2022-09-22T23:16:45.851Z,4.10
2022-09-22T23:19:15.342Z,3.85
2022-09-22T23:21:45.758Z,3.90
2022-09-22T23:24:16.220Z,3.47
2022-09-22T23:26:44.527Z,4.03
2022-09-22T23:29:12.363Z,4.35
2022-09-22T23:31:40.298Z,3.97
2022-09-22T23:34:08.161Z,4.50
2022-09-22T23:36:36.119Z,4.18
2022-09-22T23:39:05.824Z,4.28
2022-09-22T23:41:36.290Z,3.80
2022-09-22T23:44:06.665Z,4.18
2022-09-22T23:46:34.991Z,3.60
2022-09-22T23:49:02.830Z,4.15
2022-09-22T23:51:30.780Z,3.80
2022-09-22T23:53:59.231Z,4.57
2022-09-22T23:56:28.457Z,3.75
2022-09-22T23:58:56.424Z,4.40
